Søk
Bilder fra klubbens virksomhet
Tooltip
Soloflygninger
Tooltip
Espen Wiik har fløyet solo
Tooltip
Rashad Habib har fløyet solo
Tooltip
David Froholt har fløyet solo
Tooltip
Leif Olsen er pilot
  • Tilfeldig bilde
     
    Opplastet 21-05-2008
    Opplastet 04-09-2011
    Opplastet 21-05-2008
     
  • Siste bilde
     
    Opplastet 27-07-2018
    Opplastet 05-06-2018
    Opplastet 31-10-2017
     
«StartForrige1234NesteSiste»
Side 1 av 4
 
 
METAR
2018/10/16 02:20 ENCN 160220Z AUTO 05003KT 0450 R03/1000N R21/P2000N FG SCT000/// 05/05 Q1016
TAF
2018/10/16 03:36 TAF TAF ENCN 160200Z 1603/1612 VRB05KT 0300 FG VV001 TEMPO 1603/1608 3000 BCFG BKN003 BECMG 1608/1610 9999 BKN020
LN-KFK
Operativ VFR-natt
VFR dag
07:24 - 19:01
Brannvakt
Inaktiv
Banner
Banner
Banner
Banner
Banner